KLXN

Jim Kelly Field Airport

Lexington, Nebraska, USA
METAR KLXN 190255Z AUTO 10010KT 10SM CLR 23/19 A2988 RMK AO2 T02300187
Observed Flight Rules
Sep-19 @ 02:55 UTC (23 minutes ago) Visual Flight Rules
Wind Visibility Clouds
100° at 10 knots 10 miles
  • Clear skies
Temperatures Readings
Current 23°C / 73°F
Dewpoint 19°C / 66°F
Humidity 78%
Altimeter 29.88" Hg
Pressure 1012 hPa
Elevation 734
METAR KLXN 190255Z AUTO 10010KT 10SM CLR 23/19 A2988 RMK AO2 T02300187
Observed Flight Rules
Sep-19 @ 02:55 UTC
(23 minutes ago)
VFR
Wind Visibility
100° at 10 knots 10 miles
Clouds
  • Clear skies
Temperature Dewpoint
23°C / 73°F 19°C / 66°F
Humidity Altimeter Pressure
78% 29.88" Hg 1012 hPa